Time;durP1;ratioP1;P1;durP2;ratioP2;P2;SDS_P1;SDS_P2;PMS_P1;PMS_P2;Temp;Humidity;BMP_temperature;BMP_pressure;BME280_temperature;BME280_humidity;BME280_pressure;Samples;Min_cycle;Max_cycle;Signal;HPM_P1;HPM_P2
2021/05/03 00:01:53;;;;;;;9.73;2.40;;;;;;;15.68;48.36;100494.16;5073617;28;20091;-75
2021/05/03 00:04:57;;;;;;;7.03;2.40;;;;;;;15.64;48.63;100504.47;5074285;28;20047;-76
2021/05/03 00:08:02;;;;;;;10.68;2.60;;;;;;;15.54;47.90;100510.00;5074238;28;20095;-76
2021/05/03 00:11:07;;;;;;;7.10;2.20;;;;;;;15.57;48.37;100508.84;5073949;28;20052;-74
2021/05/03 00:14:11;;;;;;;9.90;2.20;;;;;;;15.59;48.43;100501.41;5074140;28;20487;-76
2021/05/03 00:17:15;;;;;;;4.68;1.95;;;;;;;15.68;48.58;100511.22;5073997;28;20482;-76
2021/05/03 00:20:19;;;;;;;10.18;2.05;;;;;;;15.76;48.64;100519.38;5073976;28;20063;-75
2021/05/03 00:23:24;;;;;;;8.18;2.28;;;;;;;15.81;48.11;100516.19;5074029;28;20056;-76
2021/05/03 00:26:28;;;;;;;8.45;2.10;;;;;;;15.89;48.01;100517.06;5073673;28;20052;-77
2021/05/03 00:29:45;;;;;;;9.65;2.30;;;;;;;15.91;47.91;100514.19;5074174;28;20060;-76
2021/05/03 00:32:49;;;;;;;6.85;2.10;;;;;;;15.89;47.75;100524.34;5073383;28;20047;-76
2021/05/03 00:35:54;;;;;;;9.00;2.38;;;;;;;15.88;47.93;100525.34;5073012;28;20055;-78
2021/05/03 00:38:59;;;;;;;4.97;1.70;;;;;;;15.94;47.29;100528.25;5061175;28;20502;-75
2021/05/03 00:42:03;;;;;;;7.82;2.63;;;;;;;15.98;47.09;100521.47;5060975;28;20043;-76
2021/05/03 00:45:30;;;;;;;9.27;1.98;;;;;;;15.95;47.27;100527.22;5073766;28;20048;-78
2021/05/03 00:48:35;;;;;;;7.85;1.75;;;;;;;16.00;47.80;100527.56;5072921;28;20055;-76
2021/05/03 00:51:39;;;;;;;8.38;2.30;;;;;;;15.98;47.59;100529.59;5073729;28;20376;-75
2021/05/03 00:54:43;;;;;;;8.00;2.28;;;;;;;16.04;47.94;100530.81;5073691;28;20040;-76
2021/05/03 00:57:48;;;;;;;7.13;2.17;;;;;;;16.03;48.22;100531.81;5073419;28;20068;-77
2021/05/03 01:00:52;;;;;;;9.55;2.53;;;;;;;15.93;48.54;100536.53;5073485;28;20048;-76
2021/05/03 01:03:57;;;;;;;7.50;2.00;;;;;;;15.88;48.86;100539.72;5073160;28;20051;-75
2021/05/03 01:07:01;;;;;;;8.38;2.33;;;;;;;15.79;50.08;100553.41;5072140;28;20408;-78
2021/05/03 01:10:06;;;;;;;13.13;3.33;;;;;;;15.60;50.62;100568.03;5073574;28;20047;-76
2021/05/03 01:13:11;;;;;;;11.18;2.75;;;;;;;15.43;53.13;100572.47;5074250;28;20044;-76
2021/05/03 01:16:15;;;;;;;12.98;4.22;;;;;;;15.10;56.40;100577.84;5077344;28;20118;-77
2021/05/03 01:19:21;;;;;;;10.88;3.70;;;;;;;14.91;57.71;100585.13;5078048;28;20056;-78
2021/05/03 01:22:25;;;;;;;8.90;3.55;;;;;;;14.75;59.50;100597.66;5076218;28;20044;-77
2021/05/03 01:25:32;;;;;;;11.80;3.72;;;;;;;14.59;62.59;100608.31;5077400;28;20411;-77
2021/05/03 01:28:36;;;;;;;13.07;5.07;;;;;;;14.31;63.72;100599.41;5077353;28;20055;-78
2021/05/03 01:31:47;;;;;;;14.57;4.88;;;;;;;14.24;63.74;100622.59;5076497;28;20052;-77
2021/05/03 01:34:51;;;;;;;14.75;4.40;;;;;;;14.19;63.50;100628.47;5077226;28;20569;-78
2021/05/03 01:37:58;;;;;;;14.07;4.50;;;;;;;14.26;62.74;100629.56;5077070;28;20060;-78
2021/05/03 01:41:02;;;;;;;12.65;5.18;;;;;;;14.23;62.66;100635.25;5076486;28;20047;-78
2021/05/03 01:44:09;;;;;;;11.82;4.70;;;;;;;14.19;62.87;100628.47;5075965;28;20047;-78
2021/05/03 01:47:13;;;;;;;16.17;5.60;;;;;;;14.14;63.00;100624.50;5076214;28;20059;-77
2021/05/03 01:50:19;;;;;;;11.80;4.63;;;;;;;14.12;63.41;100626.50;5076913;28;20063;-78
2021/05/03 01:53:17;;;;;;;11.98;4.82;;;;;;;14.04;63.71;100626.41;5083468;28;20048;-78
2021/05/03 01:56:25;;;;;;;13.02;4.65;;;;;;;13.95;63.82;100630.00;5077110;28;20051;-78
2021/05/03 01:59:33;;;;;;;11.48;4.90;;;;;;;13.94;63.90;100639.94;5076808;28;20055;-78
2021/05/03 02:02:38;;;;;;;11.77;4.68;;;;;;;13.91;64.86;100644.78;5076522;28;20067;-77
2021/05/03 02:05:43;;;;;;;13.10;4.45;;;;;;;13.90;64.87;100646.63;5076517;28;20043;-77
2021/05/03 02:09:09;;;;;;;11.23;4.32;;;;;;;13.79;65.38;100646.84;5075888;28;20040;-77
2021/05/03 02:12:13;;;;;;;14.57;5.03;;;;;;;13.85;65.75;100654.31;5075656;28;20055;-77
2021/05/03 02:15:18;;;;;;;9.02;3.53;;;;;;;13.93;65.72;100661.66;5076265;28;20102;-77
2021/05/03 02:18:23;;;;;;;13.70;4.20;;;;;;;13.86;65.86;100655.16;5076063;28;20387;-77
2021/05/03 02:21:28;;;;;;;12.80;4.93;;;;;;;13.75;66.47;100660.78;5076128;28;20387;-77
2021/05/03 02:24:33;;;;;;;9.43;3.83;;;;;;;13.70;67.50;100666.63;5075872;28;20051;-76
2021/05/03 02:27:37;;;;;;;9.63;3.83;;;;;;;13.45;68.49;100668.09;5076253;28;20043;-78
2021/05/03 02:30:42;;;;;;;11.57;4.05;;;;;;;13.34;69.78;100672.78;5075772;28;20048;-77
2021/05/03 02:33:46;;;;;;;9.85;3.70;;;;;;;13.34;70.82;100672.78;5076117;28;20051;-78
2021/05/03 02:36:55;;;;;;;8.95;3.85;;;;;;;13.48;70.60;100667.78;5075326;28;20475;-77
2021/05/03 02:39:47;;;;;;;12.07;4.28;;;;;;;13.54;71.57;100674.44;5080020;28;20404;-77
2021/05/03 02:42:54;;;;;;;10.23;4.03;;;;;;;13.57;71.30;100677.72;5075132;28;20040;-78
2021/05/03 02:45:58;;;;;;;11.57;4.53;;;;;;;13.36;72.30;100674.34;5075918;28;20052;-77
2021/05/03 02:49:03;;;;;;;8.93;4.10;;;;;;;13.41;72.74;100674.75;5075861;28;20486;-77
2021/05/03 02:52:08;;;;;;;10.98;3.85;;;;;;;13.42;72.89;100686.41;5075754;28;20051;-77
2021/05/03 02:55:13;;;;;;;12.18;4.35;;;;;;;13.28;73.97;100695.78;5075702;28;20052;-77
2021/05/03 02:58:17;;;;;;;11.07;4.10;;;;;;;13.25;74.47;100693.38;5075618;28;20076;-78
2021/05/03 03:01:21;;;;;;;11.77;4.68;;;;;;;13.08;74.98;100707.59;5075551;28;20047;-77
2021/05/03 03:04:26;;;;;;;12.05;3.88;;;;;;;13.07;75.12;100715.78;5074517;28;20052;-78
2021/05/03 03:07:30;;;;;;;8.35;3.53;;;;;;;12.98;74.82;100718.34;5075211;28;20064;-77
2021/05/03 03:10:34;;;;;;;12.88;4.28;;;;;;;12.76;75.84;100732.06;5075072;28;20056;-78
2021/05/03 03:13:39;;;;;;;10.25;4.25;;;;;;;12.59;76.56;100729.19;5075577;28;20059;-77
2021/05/03 03:16:43;;;;;;;9.45;3.72;;;;;;;12.46;76.98;100737.50;5075269;28;20396;-78
2021/05/03 03:19:48;;;;;;;9.88;3.47;;;;;;;12.49;77.81;100736.38;5075231;28;20047;-77
2021/05/03 03:22:52;;;;;;;9.00;4.10;;;;;;;12.56;77.65;100742.91;5075188;28;20408;-78
2021/05/03 03:25:57;;;;;;;7.70;3.50;;;;;;;12.49;78.69;100744.47;5075358;28;20060;-77
2021/05/03 03:29:01;;;;;;;6.18;3.03;;;;;;;12.53;79.20;100744.03;5075068;28;20063;-78
2021/05/03 03:32:06;;;;;;;8.52;3.17;;;;;;;12.47;79.79;100749.16;5074462;28;20047;-77
2021/05/03 03:35:16;;;;;;;8.50;3.70;;;;;;;12.37;79.96;100755.31;5074881;28;20055;-77
2021/05/03 03:38:21;;;;;;;10.48;3.58;;;;;;;12.33;80.37;100755.75;5074855;28;20493;-78
2021/05/03 03:41:25;;;;;;;9.00;3.38;;;;;;;12.39;80.51;100760.59;5084952;28;20055;-77
2021/05/03 03:44:29;;;;;;;8.20;3.88;;;;;;;12.20;81.31;100766.72;5085615;28;20410;-77
2021/05/03 03:47:34;;;;;;;10.40;3.80;;;;;;;12.21;81.45;100768.44;5074614;28;20495;-77
2021/05/03 03:50:38;;;;;;;10.35;4.43;;;;;;;12.20;81.67;100768.56;5074483;28;20048;-77
2021/05/03 03:53:43;;;;;;;13.18;4.85;;;;;;;12.25;81.58;100780.63;5074827;28;20403;-77
2021/05/03 03:56:47;;;;;;;12.50;4.60;;;;;;;12.25;81.58;100783.34;5073601;28;20052;-78
2021/05/03 03:59:55;;;;;;;11.80;4.32;;;;;;;12.21;81.15;100787.28;5074439;28;20158;-77
2021/05/03 04:03:00;;;;;;;8.02;3.40;;;;;;;12.13;81.17;100795.16;5074337;28;20055;-76
2021/05/03 04:06:18;;;;;;;7.45;3.78;;;;;;;12.04;81.82;100804.06;5074324;28;20051;-77
2021/05/03 04:09:39;;;;;;;7.63;4.30;;;;;;;11.80;82.74;100803.47;5074285;28;20060;-75
2021/05/03 04:13:05;;;;;;;18.73;4.70;;;;;;;11.81;82.72;100807.88;5073966;28;20063;-77
2021/05/03 04:23:12;;;;;;;8.80;5.28;;;;;;;11.96;82.10;100821.84;5074003;28;20376;-76
2021/05/03 04:26:18;;;;;;;8.93;4.13;;;;;;;11.93;81.81;100827.47;5072649;28;20048;-77
2021/05/03 04:29:22;;;;;;;11.38;4.25;;;;;;;12.02;81.73;100832.09;5073048;28;20057;-77
2021/05/03 04:32:26;;;;;;;14.63;5.15;;;;;;;12.12;81.13;100836.50;5073258;28;20506;-76
2021/05/03 04:35:30;;;;;;;5.28;3.65;;;;;;;12.25;80.64;100849.75;5073796;28;20044;-75
2021/05/03 04:38:35;;;;;;;11.13;4.32;;;;;;;12.24;80.63;100851.63;5073679;28;20039;-77
2021/05/03 04:41:40;;;;;;;5.75;3.00;;;;;;;12.32;80.19;100865.25;5073448;28;20506;-76
2021/05/03 04:44:44;;;;;;;8.65;4.47;;;;;;;12.29;80.40;100862.81;5073182;28;20048;-77
2021/05/03 04:47:48;;;;;;;12.50;3.63;;;;;;;12.22;80.31;100858.94;5073379;28;20060;-77
2021/05/03 04:50:54;;;;;;;8.55;3.42;;;;;;;12.30;79.97;100869.91;5073162;28;20392;-78
2021/05/03 04:53:59;;;;;;;7.85;3.33;;;;;;;12.18;80.09;100873.69;5073696;28;20399;-77
2021/05/03 04:57:03;;;;;;;7.75;2.83;;;;;;;12.33;80.14;100890.34;5073637;28;20056;-77
2021/05/03 05:00:08;;;;;;;9.30;3.15;;;;;;;12.40;79.36;100903.13;5073919;28;20060;-77
2021/05/03 05:03:13;;;;;;;8.25;2.80;;;;;;;12.46;78.74;100900.91;5084472;28;20055;-78
2021/05/03 05:06:17;;;;;;;40.70;29.40;;;;;;;12.48;78.51;100907.00;5073219;28;20048;-78
2021/05/03 05:09:21;;;;;;;7.88;3.15;;;;;;;12.59;78.43;100902.38;5073732;28;20044;-76
2021/05/03 05:12:26;;;;;;;8.00;2.60;;;;;;;12.72;77.29;100907.53;5073750;28;20056;-78
2021/05/03 05:15:30;;;;;;;6.88;2.58;;;;;;;12.77;77.15;100906.16;5073750;28;20076;-77
2021/05/03 05:18:36;;;;;;;4.97;2.63;;;;;;;12.92;76.45;100903.94;5073225;28;20059;-77
2021/05/03 05:21:41;;;;;;;3.63;1.90;;;;;;;13.21;75.86;100904.09;5073621;28;20052;-77
2021/05/03 05:24:45;;;;;;;7.38;2.58;;;;;;;13.63;73.82;100898.31;5072787;28;20483;-78
2021/05/03 05:27:49;;;;;;;5.60;1.90;;;;;;;14.54;70.78;100905.91;5073585;28;20068;-78
2021/05/03 05:30:54;;;;;;;5.20;1.90;;;;;;;15.51;66.65;100899.09;5073484;28;20382;-78
2021/05/03 05:33:58;;;;;;;7.10;1.90;;;;;;;15.68;64.51;100902.84;5073356;28;20514;-77
2021/05/03 05:37:02;;;;;;;4.45;2.03;;;;;;;16.33;62.66;100902.38;5083699;28;20497;-75
2021/05/03 05:40:07;;;;;;;7.25;2.08;;;;;;;17.06;59.97;100895.53;5077144;28;20075;-77
2021/05/03 05:43:13;;;;;;;5.13;1.60;;;;;;;17.49;58.45;100892.66;5073432;28;20051;-77
2021/05/03 05:46:18;;;;;;;6.13;1.85;;;;;;;17.77;56.96;100892.38;5072967;28;20067;-81
2021/05/03 05:49:23;;;;;;;6.75;1.65;;;;;;;17.78;56.13;100903.06;5072306;28;20063;-74
2021/05/03 05:52:28;;;;;;;5.30;1.60;;;;;;;17.49;57.56;100917.06;5073572;28;20055;-75
2021/05/03 05:55:32;;;;;;;9.05;1.73;;;;;;;17.73;56.27;100912.72;5072812;28;20047;-77
2021/05/03 05:58:36;;;;;;;5.47;1.70;;;;;;;18.28;54.57;100915.66;5073002;28;20063;-75
2021/05/03 06:01:41;;;;;;;5.50;1.58;;;;;;;18.83;53.23;100928.38;5075188;28;20391;-76
2021/05/03 06:04:45;;;;;;;4.85;1.38;;;;;;;19.65;50.93;100920.75;5076936;28;20063;-73
2021/05/03 06:07:51;;;;;;;4.38;1.20;;;;;;;22.35;44.49;100919.06;5076781;28;20048;-75
2021/05/03 06:10:55;;;;;;;4.30;1.20;;;;;;;23.95;40.31;100920.44;5080609;28;20063;-76
2021/05/03 06:13:59;;;;;;;4.15;1.40;;;;;;;25.06;37.80;100905.91;5095436;28;20047;-77
2021/05/03 06:17:04;;;;;;;7.05;1.20;;;;;;;26.10;36.17;100914.72;5093710;28;20052;-76
2021/05/03 06:20:09;;;;;;;4.70;1.33;;;;;;;26.10;35.28;100914.72;5092243;28;20051;-77
2021/05/03 06:23:14;;;;;;;4.50;1.27;;;;;;;27.17;32.93;100919.13;5092325;28;20063;-77
2021/05/03 06:26:18;;;;;;;3.70;1.20;;;;;;;26.35;33.95;100923.91;5092172;28;20494;-77
2021/05/03 06:29:23;;;;;;;5.45;1.30;;;;;;;25.88;35.14;100931.81;5092998;28;20063;-77
2021/05/03 06:32:28;;;;;;;4.22;1.60;;;;;;;25.52;36.37;100941.53;5094141;28;20051;-78
2021/05/03 06:35:34;;;;;;;4.50;1.20;;;;;;;26.75;33.70;100938.19;5096148;28;20051;-74
2021/05/03 06:38:48;;;;;;;4.85;1.10;;;;;;;26.95;32.88;100941.63;5096389;28;20051;-75
2021/05/03 06:41:53;;;;;;;7.82;1.67;;;;;;;27.84;31.47;100943.78;5096167;28;20395;-74
2021/05/03 06:44:57;;;;;;;8.45;1.30;;;;;;;27.25;32.19;100952.78;5096404;28;20059;-75
2021/05/03 06:48:04;;;;;;;6.28;1.52;;;;;;;28.46;30.83;100948.00;5096218;28;20071;-73
2021/05/03 06:51:09;;;;;;;7.63;1.67;;;;;;;29.24;30.41;100967.06;5072251;28;20051;-74
2021/05/03 06:54:13;;;;;;;5.35;1.20;;;;;;;29.15;29.52;100966.59;5083751;28;20059;-72
2021/05/03 06:57:17;;;;;;;7.10;1.40;;;;;;;30.03;28.29;100964.38;5083721;28;20502;-75
2021/05/03 07:00:22;;;;;;;5.47;1.35;;;;;;;29.94;28.25;100970.56;5083434;28;20054;-73
2021/05/03 07:03:26;;;;;;;7.72;1.83;;;;;;;29.51;29.46;100973.78;5083228;28;20502;-74
2021/05/03 07:06:31;;;;;;;8.95;1.65;;;;;;;30.53;27.73;100975.59;5083425;28;20051;-73
2021/05/03 07:09:35;;;;;;;7.63;1.92;;;;;;;31.32;26.88;100977.16;5083294;28;20055;-73
2021/05/03 07:12:44;;;;;;;4.68;1.30;;;;;;;32.17;25.93;100973.88;5083061;28;20490;-75
2021/05/03 07:15:48;;;;;;;6.82;1.70;;;;;;;32.00;26.01;100976.72;5083317;28;20063;-73
2021/05/03 07:18:53;;;;;;;4.50;1.23;;;;;;;32.43;25.56;100988.84;5071889;28;20051;-74
2021/05/03 07:21:59;;;;;;;10.45;1.50;;;;;;;32.03;25.93;100983.69;5071462;28;20047;-73
2021/05/03 07:25:07;;;;;;;3.38;0.90;;;;;;;32.54;25.26;100985.09;5083019;28;20067;-73
2021/05/03 07:28:11;;;;;;;9.10;1.17;;;;;;;33.49;24.58;100986.94;5083081;28;20051;-73
2021/05/03 07:31:15;;;;;;;6.32;1.48;;;;;;;31.66;25.62;101000.16;5094622;28;20043;-74
2021/05/03 07:34:20;;;;;;;3.65;1.40;;;;;;;32.43;25.18;100994.41;5094817;28;20051;-73
2021/05/03 07:37:25;;;;;;;6.25;1.30;;;;;;;33.32;24.54;100987.13;5095354;28;20410;-73
2021/05/03 07:40:29;;;;;;;6.22;1.50;;;;;;;34.32;23.35;100991.50;5082102;28;20059;-74
2021/05/03 07:43:36;;;;;;;5.05;1.08;;;;;;;34.26;23.33;100998.16;5094972;28;20055;-74
2021/05/03 07:46:40;;;;;;;4.38;1.27;;;;;;;34.77;23.49;101005.50;5095084;28;20043;-75
2021/05/03 07:49:45;;;;;;;2.63;0.98;;;;;;;34.30;23.07;101002.91;5094879;28;20067;-73
2021/05/03 07:52:49;;;;;;;2.88;0.98;;;;;;;33.80;23.74;101005.53;5095004;28;20043;-78
2021/05/03 07:55:53;;;;;;;3.85;1.30;;;;;;;34.21;23.63;100999.00;5095010;28;20047;-76
2021/05/03 07:58:58;;;;;;;2.53;0.90;;;;;;;34.56;22.28;101015.84;5082111;28;20387;-76
2021/05/03 08:02:03;;;;;;;4.38;0.90;;;;;;;34.09;23.22;101017.06;5082407;28;20051;-78
2021/05/03 08:05:07;;;;;;;3.42;1.05;;;;;;;32.54;25.23;101016.50;5082144;28;20051;-73
2021/05/03 08:08:12;;;;;;;3.35;1.05;;;;;;;31.45;25.83;101032.31;5070950;28;20051;-73
2021/05/03 08:11:18;;;;;;;4.65;1.00;;;;;;;29.82;27.74;101025.13;5082336;28;20051;-74
2021/05/03 08:14:22;;;;;;;2.83;1.02;;;;;;;30.84;27.03;101033.22;5070895;28;20047;-72
2021/05/03 08:17:26;;;;;;;4.80;1.30;;;;;;;30.80;27.20;101028.44;5082104;28;20389;-76
2021/05/03 08:20:31;;;;;;;5.60;1.17;;;;;;;31.17;26.76;101026.03;5070386;28;20058;-73
2021/05/03 08:23:36;;;;;;;3.38;1.10;;;;;;;31.29;26.52;101040.66;5081413;28;20055;-73
2021/05/03 08:26:40;;;;;;;5.38;1.05;;;;;;;29.56;27.75;101040.28;5082063;28;20063;-73
2021/05/03 08:29:45;;;;;;;3.88;1.40;;;;;;;28.27;30.03;101043.00;5082021;28;20055;-74
2021/05/03 08:32:49;;;;;;;2.47;1.00;;;;;;;26.67;32.37;101045.03;5070408;28;20051;-75
2021/05/03 08:35:56;;;;;;;6.82;1.52;;;;;;;25.55;34.78;101045.56;5081905;28;20047;-74
2021/05/03 08:39:03;;;;;;;2.67;1.30;;;;;;;23.80;37.51;101045.88;5081711;28;20051;-74
2021/05/03 08:42:09;;;;;;;2.58;1.38;;;;;;;23.16;39.16;101049.88;5070127;28;20161;-74
2021/05/03 08:45:15;;;;;;;6.38;1.50;;;;;;;22.52;40.55;101055.41;5069992;28;20044;-78
2021/05/03 08:51:52;;;;;;;6.60;1.58;;;;;;;21.32;44.76;101057.81;5094003;28;20047;-75
2021/05/03 08:54:57;;;;;;;;;;;;;;;20.75;46.21;101071.13;5082068;28;20051;-75
2021/05/03 08:58:01;;;;;;;4.75;1.63;;;;;;;20.55;46.76;101069.91;5081237;28;19924;-74
2021/05/03 09:01:07;;;;;;;5.55;1.52;;;;;;;20.87;46.49;101058.75;5081541;28;20055;-75
2021/05/03 09:04:13;;;;;;;3.90;1.60;;;;;;;21.00;45.19;101060.84;5081337;28;20059;-74
2021/05/03 09:07:18;;;;;;;6.63;1.60;;;;;;;20.80;45.57;101060.50;5081506;28;20062;-75
2021/05/03 09:10:23;;;;;;;4.03;1.40;;;;;;;20.35;47.86;101068.69;5069925;28;20051;-76
2021/05/03 09:13:36;;;;;;;4.07;1.92;;;;;;;19.87;48.57;101062.47;5081295;28;20490;-75
2021/05/03 09:16:43;;;;;;;5.03;1.70;;;;;;;20.32;47.85;101064.44;5081565;28;20122;-75
2021/05/03 09:19:48;;;;;;;10.57;1.73;;;;;;;20.27;47.52;101071.50;5070141;28;20058;-74
2021/05/03 09:26:06;;;;;;;7.63;1.85;;;;;;;20.70;47.32;101077.13;5081466;28;20051;-75
2021/05/03 09:29:35;;;;;;;6.55;1.90;;;;;;;20.21;48.30;101072.16;5069878;28;20044;-75
2021/05/03 09:32:40;;;;;;;4.55;1.90;;;;;;;19.98;48.83;101069.38;5069837;28;20051;-75
2021/05/03 09:35:54;;;;;;;7.38;1.73;;;;;;;19.95;49.59;101067.84;5095984;28;20051;-75
2021/05/03 09:38:59;;;;;;;8.20;1.95;;;;;;;19.78;48.78;101060.78;5074127;28;20055;-76
2021/05/03 09:42:03;;;;;;;6.32;2.03;;;;;;;19.98;47.71;101059.34;5073551;28;20051;-77
2021/05/03 09:45:10;;;;;;;5.82;1.95;;;;;;;19.99;48.01;101069.22;5073307;28;20070;-78
2021/05/03 09:48:14;;;;;;;6.75;2.33;;;;;;;20.07;49.00;101060.16;5096541;28;20067;-77
2021/05/03 09:51:44;;;;;;;6.47;2.50;;;;;;;20.15;48.60;101054.63;5073380;28;20378;-76
2021/05/03 09:54:49;;;;;;;7.00;2.10;;;;;;;19.91;49.33;101054.78;5073233;28;20047;-75
2021/05/03 09:58:10;;;;;;;5.25;2.10;;;;;;;19.54;49.06;101060.88;5073234;28;20055;-76
2021/05/03 10:01:15;;;;;;;5.93;2.17;;;;;;;19.45;50.14;101053.78;5073173;28;20070;-74
2021/05/03 10:04:20;;;;;;;9.95;2.15;;;;;;;19.64;49.93;101056.09;5073017;28;20047;-75
2021/05/03 10:07:27;;;;;;;6.57;2.60;;;;;;;19.70;49.47;101058.09;5084689;28;20055;-75
2021/05/03 10:10:38;;;;;;;6.65;2.63;;;;;;;19.67;48.87;101052.16;5073230;28;20075;-74
2021/05/03 10:13:45;;;;;;;7.15;2.22;;;;;;;19.76;49.48;101045.66;5084398;28;20058;-75
2021/05/03 10:16:52;;;;;;;4.82;2.33;;;;;;;19.86;49.48;101047.13;5084548;28;20046;-74
2021/05/03 10:20:01;;;;;;;5.75;2.45;;;;;;;19.77;48.82;101058.25;5073159;28;20247;-78
2021/05/03 10:23:07;;;;;;;8.05;2.80;;;;;;;19.53;49.25;101044.72;5095750;28;20414;-77
2021/05/03 10:26:12;;;;;;;5.70;2.10;;;;;;;19.83;47.65;101041.19;5084219;28;20047;-76
2021/05/03 10:29:41;;;;;;;9.50;2.63;;;;;;;20.10;47.47;101038.81;5095723;28;20043;-76
2021/05/03 10:32:58;;;;;;;5.57;2.25;;;;;;;20.09;48.90;101039.00;5096627;28;20055;-77
2021/05/03 10:36:34;;;;;;;8.68;3.05;;;;;;;19.78;47.51;101030.81;5095645;28;20043;-78
2021/05/03 10:39:39;;;;;;;10.48;2.80;;;;;;;19.89;46.58;101035.88;5095157;28;20051;-77
2021/05/03 10:43:01;;;;;;;8.68;2.50;;;;;;;20.06;46.78;101031.19;5095628;28;20071;-77
2021/05/03 10:49:33;;;;;;;11.10;2.50;;;;;;;20.44;46.83;101013.91;5096245;28;20047;-78
2021/05/03 10:52:38;;;;;;;7.50;2.45;;;;;;;19.97;47.51;101021.38;5096172;28;20490;-79
2021/05/03 10:55:53;;;;;;;8.00;2.70;;;;;;;20.06;47.98;101020.28;5095344;28;20051;-79
2021/05/03 10:58:58;;;;;;;5.13;2.40;;;;;;;20.00;48.05;101010.94;5096192;28;20043;-78
2021/05/03 11:02:02;;;;;;;6.63;2.53;;;;;;;20.05;48.99;101007.66;5096136;28;20051;-78
2021/05/03 11:05:26;;;;;;;4.80;2.55;;;;;;;19.92;48.95;101007.44;5096121;28;20066;-77
2021/05/03 11:08:31;;;;;;;5.82;2.45;;;;;;;20.03;50.14;101007.00;5095192;28;20064;-77
2021/05/03 11:11:58;;;;;;;8.32;2.70;;;;;;;20.17;48.95;101000.78;5095167;28;20051;-77
2021/05/03 11:15:14;;;;;;;7.90;3.45;;;;;;;20.01;47.68;100999.03;5095748;28;20063;-76
2021/05/03 11:18:25;;;;;;;7.93;2.53;;;;;;;19.72;48.01;100996.13;5095498;28;20501;-77
2021/05/03 11:21:47;;;;;;;8.02;2.38;;;;;;;19.75;46.83;100990.28;5096031;28;20529;-77
2021/05/03 11:25:03;;;;;;;8.68;2.80;;;;;;;19.94;47.41;100978.97;5095693;28;20054;-77
2021/05/03 11:28:16;;;;;;;9.10;3.03;;;;;;;20.17;47.69;100981.69;5082905;28;20395;-78
2021/05/03 11:31:21;;;;;;;5.95;2.75;;;;;;;19.92;48.37;100975.56;5095595;28;20399;-77
2021/05/03 11:34:34;;;;;;;9.70;3.00;;;;;;;19.55;48.86;100982.75;5095396;28;20055;-77
2021/05/03 11:38:02;;;;;;;7.00;2.85;;;;;;;19.59;48.90;100968.59;5095434;28;20482;-77
2021/05/03 11:41:24;;;;;;;7.90;2.70;;;;;;;19.73;48.96;100964.25;5094181;28;20051;-77
2021/05/03 11:44:50;;;;;;;5.78;2.40;;;;;;;19.71;47.44;100960.88;5094650;28;20402;-77
2021/05/03 11:47:55;;;;;;;6.05;2.50;;;;;;;19.83;47.83;100960.28;5094672;28;20383;-77
2021/05/03 11:51:13;;;;;;;5.32;2.20;;;;;;;19.97;45.93;100964.13;5093840;28;20063;-77
2021/05/03 11:54:34;;;;;;;6.45;2.60;;;;;;;20.03;45.53;100950.63;5094758;28;20047;-79
2021/05/03 11:57:44;;;;;;;9.15;2.85;;;;;;;20.00;45.07;100952.84;5093910;28;20394;-76
2021/05/03 12:00:49;;;;;;;5.38;2.45;;;;;;;20.08;45.00;100942.75;5094481;28;20059;-77
2021/05/03 12:03:57;;;;;;;11.32;2.53;;;;;;;20.09;44.12;100943.59;5094253;28;20044;-76
2021/05/03 12:07:32;;;;;;;6.35;2.70;;;;;;;20.09;46.09;100936.28;5093508;28;20047;-77
2021/05/03 12:10:37;;;;;;;6.55;2.25;;;;;;;20.15;46.32;100931.97;5031859;28;20056;-77
2021/05/03 12:13:50;;;;;;;7.28;2.53;;;;;;;20.27;44.68;100935.16;5020772;28;20068;-77
2021/05/03 12:16:54;;;;;;;7.68;3.05;;;;;;;20.05;45.77;100931.34;5032174;28;20136;-76
2021/05/03 12:20:11;;;;;;;8.48;2.80;;;;;;;20.12;45.72;100938.63;5031948;28;20053;-76
2021/05/03 12:23:16;;;;;;;8.27;2.63;;;;;;;20.11;45.70;100936.09;5031950;28;20076;-78
2021/05/03 12:26:20;;;;;;;5.60;2.47;;;;;;;20.15;45.22;100928.41;5032021;28;20167;-78
2021/05/03 12:29:27;;;;;;;6.80;2.80;;;;;;;20.19;45.96;100930.59;5031609;28;20201;-78
2021/05/03 12:32:34;;;;;;;11.20;2.83;;;;;;;20.43;46.41;100924.09;5031467;28;20056;-78
2021/05/03 12:35:39;;;;;;;6.82;2.83;;;;;;;20.10;46.04;100921.59;5031681;28;20121;-77
2021/05/03 12:38:44;;;;;;;7.78;2.65;;;;;;;20.25;45.24;100931.75;5020334;28;20068;-77
2021/05/03 12:41:48;;;;;;;9.50;2.72;;;;;;;20.18;46.21;100920.69;5031784;28;20121;-78
2021/05/03 12:44:55;;;;;;;7.93;3.45;;;;;;;20.22;45.21;100913.00;5031629;28;20065;-75
2021/05/03 12:48:19;;;;;;;5.70;2.70;;;;;;;20.12;45.09;100913.28;5093760;28;20059;-78
2021/05/03 12:51:38;;;;;;;10.25;3.05;;;;;;;19.90;44.83;100909.50;5093454;28;20387;-78
2021/05/03 12:58:09;;;;;;;7.85;2.22;;;;;;;19.90;44.80;100890.41;5093830;28;20054;-77
2021/05/03 13:11:24;;;;;;;9.48;2.80;;;;;;;20.04;45.76;100873.28;5096905;28;20066;-78
2021/05/03 13:24:58;;;;;;;8.88;3.63;;;;;;;19.87;45.73;100855.38;5097238;28;20047;-78
2021/05/03 13:28:08;;;;;;;9.25;2.60;;;;;;;19.79;46.92;100860.88;5097300;28;20051;-75
2021/05/03 13:31:12;;;;;;;7.32;3.20;;;;;;;19.61;46.67;100852.16;5097280;28;20619;-78
2021/05/03 13:34:18;;;;;;;6.38;2.88;;;;;;;19.59;47.02;100851.50;5097199;28;20371;-76
2021/05/03 13:37:23;;;;;;;8.88;3.03;;;;;;;19.66;47.18;100854.34;5097002;28;20047;-76
2021/05/03 13:40:28;;;;;;;8.60;2.78;;;;;;;19.77;48.03;100852.06;5096487;28;20059;-79
2021/05/03 13:43:33;;;;;;;9.00;2.88;;;;;;;19.95;46.28;100846.25;5096842;28;20055;-76
2021/05/03 13:46:38;;;;;;;7.20;2.85;;;;;;;20.11;46.66;100852.44;5096523;28;20489;-76
2021/05/03 13:49:42;;;;;;;7.53;2.60;;;;;;;20.16;45.47;100853.75;5095876;28;20059;-77
2021/05/03 13:52:46;;;;;;;10.55;2.80;;;;;;;20.18;45.20;100844.38;5097119;28;20062;-76
2021/05/03 13:55:54;;;;;;;7.53;2.80;;;;;;;20.11;45.87;100844.28;5095966;28;20051;-78
2021/05/03 13:58:58;;;;;;;10.73;5.07;;;;;;;20.19;45.06;100837.91;5096753;28;20051;-79
2021/05/03 14:02:05;;;;;;;8.40;2.85;;;;;;;20.22;44.31;100840.22;5096801;28;20055;-79
2021/05/03 14:05:10;;;;;;;6.47;2.55;;;;;;;20.23;45.23;100841.13;5096576;28;20050;-77
2021/05/03 14:08:15;;;;;;;5.90;2.88;;;;;;;20.29;45.47;100832.22;5096730;28;20360;-79
2021/05/03 14:11:20;;;;;;;7.22;2.78;;;;;;;20.25;45.26;100819.97;5095732;28;20059;-77
2021/05/03 14:14:26;;;;;;;5.82;2.63;;;;;;;20.04;44.19;100824.25;5096729;28;20050;-78
2021/05/03 14:17:30;;;;;;;7.05;2.63;;;;;;;20.06;44.57;100827.63;5096718;28;20474;-78
2021/05/03 14:20:35;;;;;;;8.25;2.40;;;;;;;20.16;43.70;100829.22;5094790;28;20482;-78
2021/05/03 14:23:39;;;;;;;5.35;2.70;;;;;;;20.11;43.09;100827.91;5096341;28;20047;-76
2021/05/03 14:26:46;;;;;;;6.78;2.83;;;;;;;19.91;42.98;100824.00;5096238;28;20047;-77
2021/05/03 14:29:55;;;;;;;7.32;2.85;;;;;;;19.92;42.71;100813.97;5094864;28;20078;-77
2021/05/03 14:33:11;;;;;;;7.55;2.85;;;;;;;19.95;43.75;100819.00;5096086;28;20489;-78
2021/05/03 14:36:24;;;;;;;8.05;2.60;;;;;;;20.02;43.99;100809.91;5095171;28;20051;-78
2021/05/03 14:39:29;;;;;;;5.30;2.55;;;;;;;20.15;44.77;100812.03;5095446;28;20055;-77
2021/05/03 14:42:34;;;;;;;9.57;2.92;;;;;;;20.20;44.34;100806.00;5095696;28;20382;-78
2021/05/03 14:49:14;;;;;;;8.23;2.60;;;;;;;20.40;42.32;100816.22;5095729;28;20055;-78
2021/05/03 14:52:30;;;;;;;6.13;2.20;;;;;;;20.36;41.96;100812.19;5095213;28;20055;-76
2021/05/03 14:55:35;;;;;;;6.60;2.33;;;;;;;20.43;42.98;100817.75;5095653;28;20055;-77
2021/05/03 14:58:39;;;;;;;6.75;2.65;;;;;;;20.40;42.44;100805.31;5095594;28;20043;-77
2021/05/03 15:01:43;;;;;;;7.68;2.58;;;;;;;20.46;43.91;100803.72;5095629;28;20048;-77
2021/05/03 15:04:48;;;;;;;5.90;2.85;;;;;;;20.48;43.48;100810.69;5095016;28;20054;-77
2021/05/03 15:07:52;;;;;;;5.35;2.17;;;;;;;20.45;43.38;100800.16;5095513;28;20047;-76
2021/05/03 15:10:57;;;;;;;11.07;2.92;;;;;;;20.39;44.15;100794.63;5095454;28;20055;-76
2021/05/03 15:14:11;;;;;;;6.47;2.45;;;;;;;20.33;42.36;100795.34;5095381;28;20043;-77